Terminal Aerodrome Forecast
Issued by NWS

Current Version | Previous Version | Text Only | Print | Product List | Glossary On
Versions: 1 2 3 4 5 6 7 8 9 10 11 12 13 14 15
769
FTUS42 TJSJ 210006 RRA
TAFJPS
TAF
TJPS 210006Z 2100/2124 25035G50KT 3SM SHRA SCT015 BKN025 BKN060
     FM210300 20020G30KT 3SM SHRA SCT015 BKN025
     FM211100 17015G25KT P6SM VCSH SCT025 BKN035
     FM212000 17012KT P6SM VCSH SCT025 BKN045
      AMD NOT SKED=

USA.gov is the U.S. government's official web portal to all federal, state and local government web resources and services.